Time;durP1;ratioP1;P1;durP2;ratioP2;P2;SDS_P1;SDS_P2;PMS_P1;PMS_P2;Temp;Humidity;BMP_temperature;BMP_pressure;BME280_temperature;BME280_humidity;BME280_pressure;Samples;Min_cycle;Max_cycle;Signal;HPM_P1;HPM_P2
2023/10/31 06:56:40;;;;;;;12.67;8.80;;;;;;;9.15;78.94;98893.59;22481812;23;20227;-81
2023/10/31 07:06:43;;;;;;;11.37;9.20;;;;;;;9.24;78.24;98897.06;20589370;28;20233;-80
2023/10/31 07:16:46;;;;;;;12.00;9.10;;;;;;;9.05;79.56;98899.69;20589633;28;20313;-80
2023/10/31 07:26:48;;;;;;;10.30;8.50;;;;;;;9.17;78.55;98908.09;20602525;28;20211;-82
2023/10/31 07:36:51;;;;;;;10.57;6.87;;;;;;;9.17;77.77;98908.09;20590650;28;20313;-81
2023/10/31 07:46:52;;;;;;;9.17;6.87;;;;;;;9.11;77.14;98920.72;20597737;28;20199;-82
2023/10/31 07:56:56;;;;;;;6.67;5.60;;;;;;;9.43;76.66;98922.53;20628096;28;20229;-81
2023/10/31 08:06:57;;;;;;;6.50;5.37;;;;;;;9.17;78.12;98927.72;20662529;28;20198;-81
2023/10/31 08:17:00;;;;;;;5.83;5.27;;;;;;;9.33;77.08;98937.06;20668003;28;20226;-81
2023/10/31 08:27:02;;;;;;;7.10;6.30;;;;;;;8.77;78.48;98950.09;20654034;28;20285;-82
2023/10/31 08:37:06;;;;;;;8.03;6.83;;;;;;;9.08;77.79;98950.31;20669033;28;20225;-81
2023/10/31 08:47:07;;;;;;;7.70;6.63;;;;;;;9.17;76.68;98974.63;20669390;28;20585;-81
2023/10/31 08:57:10;;;;;;;8.50;6.97;;;;;;;9.69;75.26;98985.91;20665607;28;20225;-81
2023/10/31 09:07:13;;;;;;;6.20;5.60;;;;;;;8.66;77.49;99011.44;20665822;28;20198;-81
2023/10/31 09:17:16;;;;;;;6.13;5.53;;;;;;;9.21;76.71;99021.28;20656361;28;20514;-82
2023/10/31 09:27:18;;;;;;;5.47;4.97;;;;;;;9.67;73.75;99036.00;20657822;28;20619;-81
2023/10/31 09:37:21;;;;;;;6.20;5.60;;;;;;;9.54;74.01;99051.19;20620566;28;20630;-81
2023/10/31 09:47:23;;;;;;;8.50;5.50;;;;;;;9.81;73.58;99067.31;20639015;28;20203;-80
2023/10/31 09:57:27;;;;;;;5.00;4.50;;;;;;;9.53;73.11;99091.69;20647092;28;20313;-82
2023/10/31 10:07:28;;;;;;;5.17;4.63;;;;;;;9.73;74.37;99104.81;20633686;28;20257;-80
2023/10/31 10:17:33;;;;;;;5.67;3.73;;;;;;;9.90;72.99;99115.78;20638447;28;20304;-80
2023/10/31 10:27:35;;;;;;;5.00;3.53;;;;;;;10.24;72.43;99124.84;20647947;28;20211;-82
2023/10/31 10:37:39;;;;;;;5.80;2.97;;;;;;;9.77;72.40;99139.44;20638504;28;20221;-82
2023/10/31 10:47:42;;;;;;;4.10;3.00;;;;;;;9.66;73.11;99160.75;20638623;28;20208;-82
2023/10/31 10:57:49;;;;;;;5.43;4.00;;;;;;;9.65;73.48;99164.72;20632823;28;20317;-83
2023/10/31 11:07:52;;;;;;;5.73;3.77;;;;;;;9.96;72.50;99175.38;20660339;28;20276;-82
2023/10/31 11:17:57;;;;;;;8.47;3.50;;;;;;;10.05;72.27;99171.25;20656849;28;20228;-82
2023/10/31 11:28:11;;;;;;;5.77;4.00;;;;;;;9.66;72.38;99177.59;20654735;28;20494;-83
2023/10/31 11:38:14;;;;;;;4.10;3.37;;;;;;;9.96;71.78;99195.88;20661310;28;20510;-81
2023/10/31 11:48:16;;;;;;;4.27;2.83;;;;;;;9.93;71.32;99198.53;20672228;28;20202;-84
2023/10/31 11:58:21;;;;;;;7.73;2.97;;;;;;;10.02;70.67;99208.47;20647378;28;20661;-85
2023/10/31 12:08:27;;;;;;;2.17;1.63;;;;;;;10.27;69.62;99200.00;20664034;28;20205;-82
2023/10/31 12:18:31;;;;;;;3.92;1.90;;;;;;;10.51;69.23;99208.41;20659466;28;20229;-82
2023/10/31 12:28:33;;;;;;;2.80;1.90;;;;;;;10.76;67.35;99215.63;20662302;28;20618;-83
2023/10/31 12:38:37;;;;;;;3.07;1.47;;;;;;;10.57;68.34;99217.41;20648558;28;20226;-82
2023/10/31 12:48:39;;;;;;;2.75;1.30;;;;;;;11.45;64.28;99211.50;20645213;28;20211;-82
2023/10/31 12:58:42;;;;;;;5.10;1.60;;;;;;;10.75;65.39;99219.63;20649294;28;20261;-81
2023/10/31 13:08:47;;;;;;;1.65;0.45;;;;;;;10.72;65.31;99220.34;20652805;28;20205;-82
2023/10/31 13:18:50;;;;;;;4.73;0.70;;;;;;;10.99;65.24;99210.25;20643685;28;20221;-81
2023/10/31 13:28:52;;;;;;;4.87;1.40;;;;;;;11.15;64.13;99210.28;20639548;28;20244;-82
2023/10/31 13:38:56;;;;;;;4.75;0.95;;;;;;;11.26;64.57;99214.22;20645258;28;20226;-83
2023/10/31 13:48:58;;;;;;;1.73;0.60;;;;;;;11.13;64.36;99221.09;20640012;28;20198;-83
2023/10/31 13:59:02;;;;;;;4.23;0.67;;;;;;;10.68;64.23;99230.66;20651287;28;20646;-85
2023/10/31 14:09:04;;;;;;;2.58;0.80;;;;;;;10.42;65.45;99244.28;20649683;28;20202;-88
2023/10/31 14:19:08;;;;;;;1.92;0.70;;;;;;;10.47;63.78;99246.84;20654705;28;20229;-83
2023/10/31 14:29:11;;;;;;;2.40;0.63;;;;;;;10.83;63.73;99246.78;20636713;28;20464;-82
2023/10/31 14:39:14;;;;;;;1.13;0.60;;;;;;;11.10;62.66;99258.41;20657480;28;20312;-82
2023/10/31 14:49:15;;;;;;;4.00;0.70;;;;;;;10.96;63.51;99272.06;20667762;28;20484;-78
2023/10/31 14:59:19;;;;;;;1.50;0.67;;;;;;;10.82;64.70;99284.53;20665781;28;20668;-84
2023/10/31 15:09:22;;;;;;;2.83;0.80;;;;;;;11.20;64.14;99284.06;20665799;28;20200;-81
2023/10/31 15:19:25;;;;;;;2.10;0.90;;;;;;;10.97;65.20;99304.69;20669516;28;20260;-84
2023/10/31 15:29:27;;;;;;;5.13;1.10;;;;;;;10.46;65.07;99301.47;20668390;28;20273;-83
2023/10/31 15:39:30;;;;;;;2.28;0.90;;;;;;;11.02;64.49;99312.88;20657184;28;20272;-81
2023/10/31 15:49:33;;;;;;;4.35;1.95;;;;;;;10.92;65.32;99324.63;20651922;28;20214;-84
2023/10/31 15:59:37;;;;;;;1.80;1.30;;;;;;;10.84;64.65;99330.03;20647150;28;20746;-81
2023/10/31 16:09:38;;;;;;;2.50;1.90;;;;;;;10.72;65.99;99344.13;20661352;28;20234;-82
2023/10/31 16:19:42;;;;;;;1.92;1.40;;;;;;;10.56;66.72;99354.44;20662834;28;20229;-82
2023/10/31 16:29:43;;;;;;;3.50;1.37;;;;;;;10.73;66.45;99367.47;20671943;28;20297;-82
2023/10/31 16:39:47;;;;;;;1.93;1.63;;;;;;;10.38;69.46;99355.84;20667844;28;20515;-82
2023/10/31 16:49:49;;;;;;;3.43;2.27;;;;;;;10.45;69.69;99359.72;20658734;28;20666;-82
2023/10/31 16:59:52;;;;;;;3.22;1.75;;;;;;;10.44;69.65;99365.69;20670869;28;20237;-82
2023/10/31 17:09:54;;;;;;;5.33;1.93;;;;;;;10.44;69.76;99380.56;20655229;28;20201;-80
2023/10/31 17:19:57;;;;;;;6.03;2.00;;;;;;;10.21;71.65;99389.81;20657568;28;20308;-81
2023/10/31 17:29:59;;;;;;;4.63;2.45;;;;;;;9.89;73.07;99397.13;20663193;28;20205;-84
2023/10/31 17:40:03;;;;;;;3.93;1.63;;;;;;;10.21;73.36;99409.50;20667708;28;20312;-83
2023/10/31 17:50:07;;;;;;;5.07;2.10;;;;;;;10.41;73.11;99419.81;20645304;28;20558;-86
2023/10/31 18:00:12;;;;;;;7.43;3.13;;;;;;;10.18;75.90;99425.06;20650060;28;20283;-81
2023/10/31 18:10:14;;;;;;;5.63;2.90;;;;;;;10.05;77.15;99449.53;20642950;28;20269;-81
2023/10/31 18:20:18;;;;;;;6.03;1.97;;;;;;;10.09;78.01;99450.47;20664020;28;20775;-91
2023/10/31 18:30:22;;;;;;;3.00;1.97;;;;;;;9.32;82.02;99468.00;20659379;28;20197;-80
2023/10/31 18:40:25;;;;;;;3.43;2.07;;;;;;;9.69;79.34;99481.13;20666773;28;20362;-82
2023/10/31 18:50:27;;;;;;;2.55;1.88;;;;;;;9.76;78.48;99480.53;20650616;28;20199;-80
2023/10/31 19:00:30;;;;;;;3.87;2.27;;;;;;;9.99;77.92;99467.78;20655735;28;20237;-80
2023/10/31 19:10:32;;;;;;;3.88;3.13;;;;;;;10.00;77.44;99479.84;20652272;28;20598;-81
2023/10/31 19:20:35;;;;;;;3.93;2.63;;;;;;;10.37;76.16;99477.97;20637314;28;20225;-80
2023/10/31 19:30:39;;;;;;;3.60;2.43;;;;;;;10.25;77.47;99469.50;20651327;28;20598;-80
2023/10/31 19:40:42;;;;;;;6.30;3.63;;;;;;;10.37;76.78;99461.91;20655472;28;20257;-81
2023/10/31 19:50:44;;;;;;;5.27;4.70;;;;;;;10.67;75.91;99459.72;20655696;28;20292;-89
2023/10/31 20:00:47;;;;;;;5.77;4.03;;;;;;;10.10;77.74;99463.38;20651041;28;20245;-81
2023/10/31 20:10:49;;;;;;;6.00;4.30;;;;;;;9.94;78.73;99470.78;20645453;28;20285;-81
2023/10/31 20:20:53;;;;;;;6.27;3.43;;;;;;;10.00;79.01;99468.59;20646781;28;20240;-82
2023/10/31 20:30:55;;;;;;;4.60;2.77;;;;;;;9.98;78.12;99456.88;20646404;28;20202;-80
2023/10/31 20:40:58;;;;;;;5.07;2.60;;;;;;;9.67;78.29;99460.97;20654965;28;20221;-87
2023/10/31 20:51:00;;;;;;;4.90;2.50;;;;;;;9.68;78.56;99461.78;20650754;28;20198;-81
2023/10/31 21:01:03;;;;;;;5.07;2.67;;;;;;;10.11;77.32;99453.75;20655125;28;20224;-84
2023/10/31 21:11:05;;;;;;;8.50;2.80;;;;;;;9.76;78.45;99458.88;20646034;28;20237;-81
2023/10/31 21:21:08;;;;;;;5.77;2.27;;;;;;;9.75;78.47;99462.03;20663534;28;20232;-80
2023/10/31 21:31:10;;;;;;;3.27;2.70;;;;;;;10.02;77.05;99461.44;20651144;28;20204;-81
2023/10/31 21:41:15;;;;;;;4.70;1.88;;;;;;;10.00;76.72;99454.56;20643356;28;20229;-80
2023/10/31 21:51:18;;;;;;;3.63;2.03;;;;;;;10.42;74.71;99453.22;20645630;28;20665;-80
2023/10/31 22:01:21;;;;;;;6.00;2.37;;;;;;;9.66;77.12;99464.13;20666488;28;20222;-81
2023/10/31 22:11:23;;;;;;;7.40;2.07;;;;;;;10.24;75.21;99460.25;20642421;28;20202;-80
2023/10/31 22:21:26;;;;;;;4.87;1.93;;;;;;;10.40;75.07;99468.81;20645164;28;20274;-81
2023/10/31 22:31:28;;;;;;;2.67;1.40;;;;;;;10.38;74.60;99460.75;20656233;28;20201;-80
2023/10/31 22:41:31;;;;;;;6.47;1.67;;;;;;;9.88;76.39;99468.56;20658059;28;20219;-81
2023/10/31 22:51:33;;;;;;;8.13;1.77;;;;;;;10.01;76.32;99464.59;20645910;28;20324;-83
2023/10/31 23:01:36;;;;;;;4.87;1.87;;;;;;;10.48;75.11;99451.03;20661710;28;20229;-82
2023/10/31 23:11:40;;;;;;;4.50;1.50;;;;;;;9.97;76.14;99446.81;20663932;28;20205;-81
2023/10/31 23:21:48;;;;;;;7.07;2.33;;;;;;;9.66;77.08;99444.44;20667692;28;20523;-83
2023/10/31 23:31:49;;;;;;;3.92;1.55;;;;;;;10.03;76.39;99439.78;20675648;28;20550;-85
2023/10/31 23:41:54;;;;;;;4.67;1.37;;;;;;;10.20;75.60;99445.22;20649362;28;20217;-81
2023/10/31 23:51:56;;;;;;;3.90;1.53;;;;;;;9.69;77.71;99452.19;20663434;28;20230;-88
